createdAt,value
2022-09-10T00:01:16.328Z,79.50
2022-09-10T00:03:46.070Z,79.40
2022-09-10T00:06:12.805Z,79.50
2022-09-10T00:08:39.802Z,79.40
2022-09-10T00:11:07.626Z,79.50
2022-09-10T00:13:34.633Z,79.40
2022-09-10T00:16:03.001Z,79.50
2022-09-10T00:18:29.928Z,79.50
2022-09-10T00:20:57.209Z,79.50
2022-09-10T00:23:25.984Z,79.50
2022-09-10T00:25:53.546Z,79.50
2022-09-10T00:28:24.297Z,79.50
2022-09-10T00:30:51.747Z,79.40
2022-09-10T00:33:18.970Z,80.30
2022-09-10T00:35:45.828Z,79.50
2022-09-10T00:38:13.100Z,79.50
2022-09-10T00:40:40.285Z,79.60
2022-09-10T00:43:15.166Z,79.70
2022-09-10T00:45:42.030Z,79.70
2022-09-10T00:48:30.784Z,79.80
2022-09-10T00:50:57.986Z,79.80
2022-09-10T00:53:26.989Z,79.80
2022-09-10T00:55:55.684Z,79.80
2022-09-10T00:58:22.553Z,79.80
2022-09-10T01:00:49.300Z,79.80
2022-09-10T01:03:16.128Z,79.70
2022-09-10T01:05:46.393Z,80.20
2022-09-10T01:08:16.927Z,80.40
2022-09-10T01:11:10.153Z,80.20
2022-09-10T01:14:09.935Z,79.90
2022-09-10T01:16:52.906Z,79.90
2022-09-10T01:19:38.209Z,79.80
2022-09-10T01:22:08.058Z,80.20
2022-09-10T01:25:01.295Z,80.30
2022-09-10T01:27:38.169Z,80.50
2022-09-10T01:30:09.210Z,80.60
2022-09-10T01:32:39.855Z,81.20
2022-09-10T01:35:22.537Z,80.50
2022-09-10T01:37:54.508Z,80.60
2022-09-10T01:40:28.816Z,80.70
2022-09-10T01:43:01.202Z,80.60
2022-09-10T01:45:28.746Z,80.40
2022-09-10T01:48:06.226Z,80.40
2022-09-10T01:50:39.362Z,80.20
2022-09-10T01:54:03.668Z,80.20
2022-09-10T01:56:42.171Z,80.20
2022-09-10T01:59:34.487Z,80.10
2022-09-10T02:02:06.558Z,80.20
2022-09-10T02:04:33.591Z,80.20
2022-09-10T02:07:00.299Z,80.10
2022-09-10T02:09:26.985Z,80.10
2022-09-10T02:11:54.484Z,79.90
2022-09-10T02:14:21.954Z,80.00
2022-09-10T02:16:55.127Z,80.00
2022-09-10T02:19:21.801Z,80.80
2022-09-10T02:21:48.571Z,79.90
2022-09-10T02:24:15.308Z,79.90
2022-09-10T02:26:43.133Z,79.90
2022-09-10T02:29:11.120Z,79.80
2022-09-10T02:31:38.271Z,79.60
2022-09-10T02:34:04.977Z,79.70
2022-09-10T02:36:31.931Z,79.80
2022-09-10T02:38:59.502Z,79.90
2022-09-10T02:41:26.280Z,79.80
2022-09-10T02:43:53.128Z,79.90
2022-09-10T02:46:19.960Z,79.70
2022-09-10T02:48:46.824Z,79.60
2022-09-10T02:51:13.590Z,79.50
2022-09-10T02:53:40.298Z,79.60
2022-09-10T02:56:07.796Z,79.50
2022-09-10T02:58:34.548Z,79.60
2022-09-10T03:01:08.917Z,79.40
2022-09-10T03:03:36.628Z,79.30
2022-09-10T03:06:04.169Z,79.40
2022-09-10T03:08:31.153Z,79.30
2022-09-10T03:10:59.390Z,79.20
2022-09-10T03:13:29.167Z,79.10
2022-09-10T03:15:56.245Z,79.10
2022-09-10T03:18:23.169Z,79.10
2022-09-10T03:20:50.240Z,80.00
2022-09-10T03:23:17.692Z,79.20
2022-09-10T03:25:49.099Z,79.00
2022-09-10T03:28:16.433Z,78.90
2022-09-10T03:30:43.107Z,79.20
2022-09-10T03:33:11.777Z,79.20
2022-09-10T03:35:38.763Z,79.20
2022-09-10T03:38:05.847Z,79.20
2022-09-10T03:40:33.018Z,79.20
2022-09-10T03:43:01.001Z,79.10
2022-09-10T03:45:28.623Z,79.30
2022-09-10T03:47:55.434Z,79.30
2022-09-10T03:50:22.144Z,79.20
2022-09-10T03:52:48.857Z,79.20
2022-09-10T03:55:15.842Z,79.20
2022-09-10T03:57:42.565Z,79.10
2022-09-10T04:00:12.116Z,79.10
2022-09-10T04:02:38.879Z,79.30
2022-09-10T04:05:06.838Z,79.20
2022-09-10T04:07:33.520Z,79.30
2022-09-10T04:10:00.293Z,79.20
2022-09-10T04:12:27.143Z,79.30
2022-09-10T04:14:53.865Z,79.30
2022-09-10T04:17:20.909Z,79.40
2022-09-10T04:19:47.583Z,79.20
2022-09-10T04:22:14.240Z,79.20
2022-09-10T04:24:41.093Z,79.40
2022-09-10T04:27:07.803Z,79.30
2022-09-10T04:29:34.641Z,79.40
2022-09-10T04:32:01.504Z,79.40
2022-09-10T04:34:28.309Z,79.40
2022-09-10T04:36:55.012Z,79.40
2022-09-10T04:39:21.816Z,79.40
2022-09-10T04:41:48.539Z,79.40
2022-09-10T04:44:15.511Z,79.40
2022-09-10T04:46:42.360Z,79.60
2022-09-10T04:49:09.778Z,79.70
2022-09-10T04:51:36.503Z,79.60
2022-09-10T04:54:03.201Z,79.70
2022-09-10T04:56:29.947Z,79.60
2022-09-10T04:58:56.720Z,79.50
2022-09-10T05:01:23.542Z,79.30
2022-09-10T05:03:50.267Z,79.00
2022-09-10T05:06:16.970Z,78.80
2022-09-10T05:08:43.654Z,79.00
2022-09-10T05:11:12.861Z,78.90
2022-09-10T05:13:39.633Z,78.90
2022-09-10T05:16:06.919Z,78.90
2022-09-10T05:18:33.757Z,79.10
2022-09-10T05:21:00.408Z,79.10
2022-09-10T05:23:27.216Z,79.70
2022-09-10T05:25:54.052Z,79.80
2022-09-10T05:28:22.639Z,79.10
2022-09-10T05:30:52.410Z,79.10
2022-09-10T05:33:19.107Z,79.30
2022-09-10T05:35:48.659Z,79.40
2022-09-10T05:38:15.375Z,80.40
2022-09-10T05:40:42.602Z,79.70
2022-09-10T05:43:10.317Z,79.70
2022-09-10T05:45:37.373Z,79.60
2022-09-10T05:48:04.203Z,79.60
2022-09-10T05:50:30.901Z,79.60
2022-09-10T05:52:57.657Z,79.50
2022-09-10T05:55:24.430Z,79.50
2022-09-10T05:57:51.525Z,79.60
2022-09-10T06:00:18.389Z,79.70
2022-09-10T06:02:45.782Z,79.80
2022-09-10T06:05:12.734Z,79.80
2022-09-10T06:07:39.929Z,80.10
2022-09-10T06:10:07.219Z,80.10
2022-09-10T06:12:34.204Z,80.10
2022-09-10T06:15:00.950Z,80.20
2022-09-10T06:17:27.605Z,80.30
2022-09-10T06:19:54.283Z,80.10
2022-09-10T06:22:21.072Z,80.20
2022-09-10T06:24:49.132Z,80.10
2022-09-10T06:27:16.992Z,80.10
2022-09-10T06:29:43.717Z,79.80
2022-09-10T06:32:10.425Z,79.50
2022-09-10T06:34:37.119Z,79.60
2022-09-10T06:37:04.228Z,79.60
2022-09-10T06:39:31.001Z,79.80
2022-09-10T06:41:57.654Z,79.70
2022-09-10T06:44:24.353Z,80.00
2022-09-10T06:47:28.264Z,80.10
2022-09-10T06:49:37.739Z,79.90
2022-09-10T06:52:04.528Z,79.90
2022-09-10T06:54:31.253Z,79.90
2022-09-10T06:56:58.201Z,79.60
2022-09-10T06:59:24.984Z,79.30
2022-09-10T07:01:51.883Z,79.40
2022-09-10T07:04:18.701Z,79.40
2022-09-10T07:06:46.634Z,79.50
2022-09-10T07:09:14.201Z,79.50
2022-09-10T07:11:41.872Z,79.40
2022-09-10T07:14:14.711Z,79.40
2022-09-10T07:16:45.609Z,79.20
2022-09-10T07:19:17.694Z,79.20
2022-09-10T07:21:44.850Z,79.20
2022-09-10T07:24:14.564Z,79.10
2022-09-10T07:26:41.885Z,79.10
2022-09-10T07:29:08.669Z,79.10
2022-09-10T07:31:35.879Z,79.10
2022-09-10T07:34:02.828Z,79.10
2022-09-10T07:36:29.783Z,79.10
2022-09-10T07:39:03.720Z,79.10
2022-09-10T07:41:31.897Z,79.40
2022-09-10T07:43:58.782Z,79.50
2022-09-10T07:46:27.887Z,79.40
2022-09-10T07:48:58.888Z,79.40
2022-09-10T07:51:26.684Z,79.40
2022-09-10T07:53:57.411Z,79.40
2022-09-10T07:56:24.207Z,79.10
2022-09-10T07:58:51.565Z,79.10
2022-09-10T08:01:19.843Z,79.10
2022-09-10T08:03:46.732Z,79.10
2022-09-10T08:06:13.453Z,79.00
2022-09-10T08:08:40.449Z,79.00
2022-09-10T08:11:16.569Z,78.80
2022-09-10T08:13:53.320Z,78.80
2022-09-10T08:16:21.744Z,78.80
2022-09-10T08:18:48.704Z,79.00
2022-09-10T08:21:16.014Z,78.50
2022-09-10T08:23:43.793Z,78.50
2022-09-10T08:26:10.505Z,78.90
2022-09-10T08:28:37.992Z,78.80
2022-09-10T08:31:09.697Z,78.70
2022-09-10T08:33:36.730Z,78.70
2022-09-10T08:36:04.048Z,78.60
2022-09-10T08:38:35.083Z,78.80
2022-09-10T08:41:02.672Z,78.70
2022-09-10T08:43:42.860Z,78.30
2022-09-10T08:46:48.425Z,78.50
2022-09-10T08:49:29.455Z,78.50
2022-09-10T08:51:59.189Z,78.00
2022-09-10T08:54:37.547Z,78.20
2022-09-10T08:57:04.332Z,78.10
2022-09-10T08:59:35.119Z,78.00
2022-09-10T09:02:31.621Z,78.20
2022-09-10T09:05:19.032Z,78.10
2022-09-10T09:07:47.023Z,77.90
2022-09-10T09:10:22.579Z,78.00
2022-09-10T09:13:15.147Z,78.10
2022-09-10T09:15:57.304Z,78.10
2022-09-10T09:18:48.177Z,77.70
2022-09-10T09:21:17.144Z,77.40
2022-09-10T09:24:13.457Z,76.50
2022-09-10T09:26:40.718Z,76.60
2022-09-10T09:29:19.673Z,76.80
2022-09-10T09:31:49.560Z,76.60
2022-09-10T09:34:22.525Z,76.60
2022-09-10T09:36:50.782Z,76.60
2022-09-10T09:39:38.022Z,75.90
2022-09-10T09:42:35.398Z,76.00
2022-09-10T09:45:17.078Z,75.70
2022-09-10T09:47:47.156Z,75.50
2022-09-10T09:50:14.077Z,75.30
2022-09-10T09:52:41.107Z,75.20
2022-09-10T09:55:21.559Z,74.80
2022-09-10T09:57:48.302Z,75.00
2022-09-10T10:00:35.987Z,74.80
2022-09-10T10:03:24.989Z,75.00
2022-09-10T10:06:01.016Z,75.20
2022-09-10T10:08:52.329Z,75.40
2022-09-10T10:11:20.608Z,75.10
2022-09-10T10:13:47.572Z,75.20
2022-09-10T10:16:22.051Z,74.80
2022-09-10T10:18:48.877Z,75.00
2022-09-10T10:21:16.652Z,74.80
2022-09-10T10:23:43.846Z,74.40
2022-09-10T10:26:20.363Z,73.90
2022-09-10T10:28:51.653Z,73.80
2022-09-10T10:31:18.652Z,73.60
2022-09-10T10:34:09.614Z,73.30
2022-09-10T10:36:57.142Z,73.00
2022-09-10T10:39:56.101Z,72.80
2022-09-10T10:42:37.873Z,72.30
2022-09-10T10:45:38.964Z,72.20
2022-09-10T10:48:15.988Z,72.10
2022-09-10T10:51:23.861Z,71.50
2022-09-10T10:54:15.054Z,71.20
2022-09-10T10:57:01.453Z,68.60
2022-09-10T10:59:46.397Z,68.40
2022-09-10T11:02:29.606Z,69.00
2022-09-10T11:04:56.647Z,69.00
2022-09-10T11:07:52.846Z,67.20
2022-09-10T11:10:29.933Z,67.40
2022-09-10T11:13:24.495Z,67.30
2022-09-10T11:16:20.099Z,67.00
2022-09-10T11:18:58.143Z,67.40
2022-09-10T11:21:31.239Z,67.80
2022-09-10T11:24:04.492Z,67.70
2022-09-10T11:26:37.792Z,67.50
2022-09-10T11:29:23.258Z,67.20
2022-09-10T11:31:54.376Z,67.20
2022-09-10T11:34:34.697Z,67.10
2022-09-10T11:37:35.378Z,67.10
2022-09-10T11:40:06.771Z,67.00
2022-09-10T11:42:40.463Z,66.60
2022-09-10T11:45:40.213Z,66.30
2022-09-10T11:48:37.224Z,66.70
2022-09-10T11:51:06.812Z,66.70
2022-09-10T11:53:34.201Z,66.30
2022-09-10T11:56:13.748Z,67.20
2022-09-10T11:58:43.404Z,66.60
2022-09-10T12:01:13.375Z,66.60
2022-09-10T12:03:47.532Z,66.50
2022-09-10T12:06:26.381Z,66.50
2022-09-10T12:09:21.680Z,66.80
2022-09-10T12:12:00.569Z,67.30
2022-09-10T12:14:28.072Z,67.10
2022-09-10T12:16:59.066Z,66.80
2022-09-10T12:19:38.002Z,66.60
2022-09-10T12:22:15.922Z,67.00
2022-09-10T12:24:48.077Z,67.10
2022-09-10T12:27:15.827Z,66.90
2022-09-10T12:29:42.482Z,66.40
2022-09-10T12:32:12.404Z,66.50
2022-09-10T12:34:39.469Z,66.60
2022-09-10T12:37:06.130Z,66.10
2022-09-10T12:39:34.424Z,65.80
2022-09-10T12:42:02.177Z,65.70
2022-09-10T12:44:29.948Z,65.80
2022-09-10T12:47:15.120Z,66.50
2022-09-10T12:49:46.558Z,62.60
2022-09-10T12:52:13.985Z,63.20
2022-09-10T12:55:02.729Z,63.00
2022-09-10T12:57:47.589Z,62.30
2022-09-10T13:00:18.495Z,62.30
2022-09-10T13:02:51.483Z,62.50
2022-09-10T13:05:39.834Z,62.20
2022-09-10T13:08:15.675Z,61.60
2022-09-10T13:10:47.229Z,60.80
2022-09-10T13:13:40.936Z,61.10
2022-09-10T13:16:27.274Z,58.70
2022-09-10T13:18:57.132Z,59.00
2022-09-10T13:21:23.886Z,59.30
2022-09-10T13:23:50.622Z,59.50
2022-09-10T13:26:33.728Z,59.40
2022-09-10T13:29:04.806Z,59.00
2022-09-10T13:31:35.657Z,57.90
2022-09-10T13:34:14.576Z,58.50
2022-09-10T13:37:18.780Z,58.40
2022-09-10T13:40:02.881Z,58.70
2022-09-10T13:42:51.164Z,58.80
2022-09-10T13:45:30.508Z,58.60
2022-09-10T13:48:01.151Z,58.50
2022-09-10T13:50:40.051Z,58.70
2022-09-10T13:53:08.353Z,58.80
2022-09-10T13:55:35.060Z,58.80
2022-09-10T13:58:16.486Z,58.50
2022-09-10T14:00:54.199Z,59.10
2022-09-10T14:03:29.018Z,58.80
2022-09-10T14:06:07.609Z,58.80
2022-09-10T14:08:49.079Z,59.50
2022-09-10T14:11:22.755Z,60.10
2022-09-10T14:14:04.275Z,60.20
2022-09-10T14:16:41.748Z,60.40
2022-09-10T14:19:24.405Z,61.70
2022-09-10T14:21:51.730Z,62.50
2022-09-10T14:24:30.291Z,62.60
2022-09-10T14:27:17.334Z,62.80
2022-09-10T14:29:44.150Z,63.40
2022-09-10T14:32:37.443Z,63.30
2022-09-10T14:35:35.304Z,64.00
2022-09-10T14:38:06.677Z,64.50
2022-09-10T14:40:36.991Z,64.80
2022-09-10T14:43:23.297Z,65.20
2022-09-10T14:45:50.140Z,65.30
2022-09-10T14:48:30.284Z,65.00
2022-09-10T14:51:17.585Z,66.10
2022-09-10T14:53:45.974Z,64.90
2022-09-10T14:56:44.016Z,64.20
2022-09-10T14:59:15.964Z,64.70
2022-09-10T15:01:46.575Z,64.70
2022-09-10T15:04:18.850Z,64.50
2022-09-10T15:06:45.694Z,64.80
2022-09-10T15:09:15.545Z,64.80
2022-09-10T15:11:48.952Z,65.50
2022-09-10T15:14:15.824Z,64.50
2022-09-10T15:16:43.950Z,64.60
2022-09-10T15:19:11.780Z,64.10
2022-09-10T15:21:39.290Z,64.30
2022-09-10T15:24:06.364Z,64.40
2022-09-10T15:26:33.288Z,64.30
2022-09-10T15:29:00.387Z,64.50
2022-09-10T15:31:32.050Z,64.30
2022-09-10T15:33:59.795Z,63.90
2022-09-10T15:36:28.365Z,64.00
2022-09-10T15:38:55.774Z,64.00
2022-09-10T15:41:22.433Z,63.90
2022-09-10T15:43:49.156Z,63.70
2022-09-10T15:46:16.444Z,63.70
2022-09-10T15:48:43.544Z,63.10
2022-09-10T15:51:17.115Z,61.90
2022-09-10T15:53:43.876Z,62.30
2022-09-10T15:56:11.169Z,62.30
2022-09-10T15:58:38.117Z,62.60
2022-09-10T16:01:12.042Z,62.50
2022-09-10T16:03:44.041Z,62.50
2022-09-10T16:06:11.010Z,63.70
2022-09-10T16:08:37.786Z,63.00
2022-09-10T16:11:11.857Z,63.10
2022-09-10T16:13:39.758Z,63.20
2022-09-10T16:16:09.539Z,63.40
2022-09-10T16:18:36.364Z,63.80
2022-09-10T16:21:09.332Z,63.90
2022-09-10T16:23:37.170Z,64.20
2022-09-10T16:26:04.508Z,64.70
2022-09-10T16:28:31.400Z,64.90
2022-09-10T16:30:59.176Z,64.90
2022-09-10T16:33:26.114Z,64.90
2022-09-10T16:35:53.185Z,65.20
2022-09-10T16:38:19.868Z,65.40
2022-09-10T16:40:46.975Z,65.60
2022-09-10T16:43:13.676Z,65.70
2022-09-10T16:45:49.695Z,66.00
2022-09-10T16:48:16.379Z,66.20
2022-09-10T16:50:43.081Z,66.50
2022-09-10T16:53:12.037Z,66.40
2022-09-10T16:55:39.230Z,66.60
2022-09-10T16:58:05.968Z,66.60
2022-09-10T17:00:32.677Z,66.50
2022-09-10T17:02:59.415Z,66.70
2022-09-10T17:05:26.377Z,66.30
2022-09-10T17:07:53.158Z,66.70
2022-09-10T17:10:20.632Z,66.60
2022-09-10T17:12:47.378Z,66.70
2022-09-10T17:15:15.456Z,66.90
2022-09-10T17:17:42.137Z,66.80
2022-09-10T17:20:09.357Z,66.80
2022-09-10T17:22:36.037Z,66.60
2022-09-10T17:25:02.785Z,66.80
2022-09-10T17:27:30.785Z,66.70
2022-09-10T17:29:57.475Z,66.80
2022-09-10T17:32:24.374Z,66.90
2022-09-10T17:34:51.561Z,66.70
2022-09-10T17:37:19.844Z,66.80
2022-09-10T17:39:47.668Z,67.00
2022-09-10T17:42:15.087Z,66.90
2022-09-10T17:44:41.816Z,66.80
2022-09-10T17:47:09.701Z,66.90
2022-09-10T17:49:37.817Z,67.00
2022-09-10T17:52:05.465Z,67.20
2022-09-10T17:54:32.196Z,67.20
2022-09-10T17:56:58.980Z,67.40
2022-09-10T17:59:26.743Z,67.40
2022-09-10T18:01:53.601Z,67.70
2022-09-10T18:04:21.638Z,67.50
2022-09-10T18:06:52.227Z,67.40
2022-09-10T18:09:19.400Z,67.60
2022-09-10T18:11:46.187Z,67.70
2022-09-10T18:14:17.666Z,67.70
2022-09-10T18:16:45.484Z,67.60
2022-09-10T18:19:14.468Z,67.80
2022-09-10T18:21:41.489Z,67.80
2022-09-10T18:24:18.174Z,67.90
2022-09-10T18:26:46.461Z,67.90
2022-09-10T18:29:15.472Z,68.00
2022-09-10T18:31:44.199Z,67.90
2022-09-10T18:34:12.933Z,67.90
2022-09-10T18:36:39.624Z,68.00
2022-09-10T18:39:07.347Z,68.00
2022-09-10T18:41:38.245Z,68.20
2022-09-10T18:44:11.546Z,68.50
2022-09-10T18:46:38.371Z,68.70
2022-09-10T18:49:05.557Z,68.70
2022-09-10T18:51:32.353Z,68.70
2022-09-10T18:54:00.344Z,68.70
2022-09-10T18:56:29.836Z,68.80
2022-09-10T18:58:59.281Z,68.90
2022-09-10T19:01:27.560Z,68.90
2022-09-10T19:03:54.799Z,68.80
2022-09-10T19:06:25.738Z,68.60
2022-09-10T19:08:54.190Z,68.80
2022-09-10T19:11:21.894Z,68.80
2022-09-10T19:13:50.025Z,68.90
2022-09-10T19:16:16.913Z,68.80
2022-09-10T19:18:43.917Z,68.90
2022-09-10T19:21:10.680Z,69.00
2022-09-10T19:23:37.452Z,68.90
2022-09-10T19:26:04.309Z,69.00
2022-09-10T19:28:33.585Z,69.00
2022-09-10T19:31:04.817Z,69.10
2022-09-10T19:33:36.269Z,69.10
2022-09-10T19:36:05.062Z,69.00
2022-09-10T19:38:37.720Z,69.00
2022-09-10T19:41:09.192Z,69.10
2022-09-10T19:43:39.125Z,69.30
2022-09-10T19:46:06.622Z,69.40
2022-09-10T19:48:33.586Z,69.20
2022-09-10T19:51:01.539Z,69.30
2022-09-10T19:53:28.469Z,69.40
2022-09-10T19:55:55.168Z,69.40
2022-09-10T19:58:21.882Z,69.40
2022-09-10T20:00:48.617Z,69.50
2022-09-10T20:03:15.349Z,69.40
2022-09-10T20:05:46.178Z,69.50
2022-09-10T20:08:12.921Z,69.60
2022-09-10T20:10:39.618Z,69.60
2022-09-10T20:13:08.337Z,69.80
2022-09-10T20:15:43.544Z,69.80
2022-09-10T20:18:12.147Z,70.70
2022-09-10T20:20:38.897Z,69.90
2022-09-10T20:23:05.628Z,69.90
2022-09-10T20:25:32.493Z,70.00
2022-09-10T20:27:59.181Z,70.90
2022-09-10T20:30:25.942Z,70.10
2022-09-10T20:32:52.677Z,70.10
2022-09-10T20:35:19.493Z,70.10
2022-09-10T20:37:51.210Z,70.10
2022-09-10T20:40:18.550Z,70.20
2022-09-10T20:42:45.306Z,70.40
2022-09-10T20:45:12.024Z,70.30
2022-09-10T20:47:43.022Z,71.30
2022-09-10T20:50:13.181Z,70.50
2022-09-10T20:52:40.262Z,70.50
2022-09-10T20:55:07.496Z,70.50
2022-09-10T20:57:34.222Z,70.50
2022-09-10T21:00:00.964Z,70.50
2022-09-10T21:02:27.776Z,70.50
2022-09-10T21:04:54.516Z,70.70
2022-09-10T21:07:21.269Z,70.80
2022-09-10T21:09:48.001Z,70.80
2022-09-10T21:12:15.921Z,70.70
2022-09-10T21:14:42.600Z,70.70
2022-09-10T21:17:09.274Z,70.70
2022-09-10T21:19:35.990Z,70.80
2022-09-10T21:22:02.809Z,70.90
2022-09-10T21:24:29.559Z,70.90
2022-09-10T21:26:56.328Z,71.00
2022-09-10T21:29:23.129Z,71.10
2022-09-10T21:31:50.734Z,71.20
2022-09-10T21:34:17.710Z,71.20
2022-09-10T21:36:45.191Z,71.30
2022-09-10T21:39:13.469Z,71.30
2022-09-10T21:41:47.664Z,71.30
2022-09-10T21:44:19.732Z,71.30
2022-09-10T21:46:46.740Z,71.40
2022-09-10T21:49:13.709Z,71.40
2022-09-10T21:51:41.234Z,71.40
2022-09-10T21:54:09.269Z,71.60
2022-09-10T21:56:35.937Z,71.50
2022-09-10T21:59:02.671Z,71.50
2022-09-10T22:01:30.408Z,71.60
2022-09-10T22:03:59.537Z,72.60
2022-09-10T22:06:28.183Z,72.60
2022-09-10T22:08:59.426Z,71.90
2022-09-10T22:11:30.803Z,71.80
2022-09-10T22:14:05.590Z,71.80
2022-09-10T22:16:32.797Z,71.90
2022-09-10T22:19:01.181Z,71.90
2022-09-10T22:21:27.928Z,72.00
2022-09-10T22:23:54.661Z,72.10
2022-09-10T22:26:23.318Z,72.20
2022-09-10T22:28:58.137Z,72.10
2022-09-10T22:31:27.311Z,72.10
2022-09-10T22:33:55.533Z,72.00
2022-09-10T22:36:24.133Z,72.00
2022-09-10T22:38:52.087Z,72.00
2022-09-10T22:41:19.134Z,72.10
2022-09-10T22:43:46.176Z,72.20
2022-09-10T22:46:13.018Z,72.20
2022-09-10T22:48:40.902Z,72.30
2022-09-10T22:51:10.860Z,72.20
2022-09-10T22:53:38.456Z,72.30
2022-09-10T22:56:05.252Z,72.30
2022-09-10T22:58:33.223Z,72.20
2022-09-10T23:01:08.017Z,72.20
2022-09-10T23:03:34.867Z,72.20
2022-09-10T23:06:15.528Z,72.10
2022-09-10T23:08:44.059Z,72.10
2022-09-10T23:11:16.666Z,72.10
2022-09-10T23:13:44.305Z,72.10
2022-09-10T23:16:22.306Z,72.10
2022-09-10T23:18:50.638Z,72.00
2022-09-10T23:21:18.303Z,72.10
2022-09-10T23:23:49.306Z,73.00
2022-09-10T23:26:17.088Z,72.20
2022-09-10T23:28:44.218Z,72.40
2022-09-10T23:31:19.229Z,72.40
2022-09-10T23:33:57.968Z,72.30
2022-09-10T23:36:25.541Z,72.30
2022-09-10T23:38:52.224Z,72.30
2022-09-10T23:41:19.016Z,72.40
2022-09-10T23:43:45.814Z,72.30
2022-09-10T23:46:12.587Z,72.40
2022-09-10T23:48:39.649Z,72.50
2022-09-10T23:51:06.580Z,72.60
2022-09-10T23:53:33.409Z,72.60
2022-09-10T23:56:00.789Z,72.70
2022-09-10T23:58:27.522Z,72.70
